Hamilton, MT (59840)

10:01 AM MST on February 06, 2016 (GMT -0700)
Hamilton West Side | | Change Station
CLOSE
Current Station
Personal Weather Station
Location: Hamilton, MT
Elevation: 3615 ft
Nearby Weather Stations

Elev 3615 ft 46.25 °N, 114.18 °W | Updated 25 seconds ago

Overcast
Overcast
36.3 °F
Feels Like 36 °F
N
2.9
Wind Variable Wind from WSW
Gusts 2.9 mph

Today
High -- | Low -- °F
--% Chance of Precip.
Yesterday
High -- | Low -- °F
Precip. -- in
Pressure 30.34 in
Visibility 10.0 miles
Clouds Mostly Cloudy 6000 ft
Mostly Cloudy 7500 ft
Overcast 9500 ft
Windchill 36 °F
Dew Point 30 °F
Humidity 79%
Rainfall 0.00 in
Snow Depth Not available.
7:53 AM 5:48 PM
Waning Crescent, 5% visible
METAR KMSO 061653Z 29009KT 10SM BKN060 BKN075 OVC095 03/M04 A3025 RMK AO2 SLP272 T00331044 $
Pressure 30.34 in
Visibility 10.0 miles
Clouds Mostly Cloudy 6000 ft
Mostly Cloudy 7500 ft
Overcast 9500 ft
Windchill 36 °F
Dew Point 30 °F
Humidity 79%
Rainfall 0.00 in
Snow Depth Not available.
7:53 AM 5:48 PM
Waning Crescent, 5% visible
METAR KMSO 061653Z 29009KT 10SM BKN060 BKN075 OVC095 03/M04 A3025 RMK AO2 SLP272 T00331044 $

10-Day Weather Forecast

Almanac

Astronomy

Feb. 06, 2016 Rise Set
Actual Time
Civil Twilight
Nautical Twilight
Astronomical Twilight
Moon
Length of Visible Light
Length of Day
Tomorrow will be .
, % of the Moon is Illuminated

Today's Extremes

State Highs State Lows

Community

WunderPhotos

Upload Photos

1,891,024 photos uploaded!

WunderBlog® & News

Nearby

Air Quality

  Air Quality AQ Index Pollutant
Not available.

Snow Depth

Station Depth Elevation

Earthquake Activity

City Distance Mag. Time & Date
Minimum magnitude displayed is 2.5.

Coastal Water Temperatures

Place Temperature

Stations

Nearby Weather Stations

Station Location Temp. Windchill Dew Point Humidity Wind Precip. Elev Updated Type
                   

Watches & Warnings

There are currently no watches in effect.